sensor_id;sensor_type;location;lat;lon;timestamp;temperature;humidity
16064;DHT22;8136;53.172;8.256;2022-07-01T00:00:37;20.50;99.90
16064;DHT22;8136;53.172;8.256;2022-07-01T00:03:04;20.40;99.90
16064;DHT22;8136;53.172;8.256;2022-07-01T00:05:31;20.20;99.90
16064;DHT22;8136;53.172;8.256;2022-07-01T00:07:57;20.10;99.90
16064;DHT22;8136;53.172;8.256;2022-07-01T00:10:25;20.10;99.90
16064;DHT22;8136;53.172;8.256;2022-07-01T00:12:52;20.00;99.90
16064;DHT22;8136;53.172;8.256;2022-07-01T00:15:19;20.00;99.90
16064;DHT22;8136;53.172;8.256;2022-07-01T00:17:47;20.00;99.90
16064;DHT22;8136;53.172;8.256;2022-07-01T00:20:14;19.90;99.90
16064;DHT22;8136;53.172;8.256;2022-07-01T00:22:41;19.90;99.90
16064;DHT22;8136;53.172;8.256;2022-07-01T00:25:09;19.70;99.90
16064;DHT22;8136;53.172;8.256;2022-07-01T00:27:38;19.70;99.90
16064;DHT22;8136;53.172;8.256;2022-07-01T00:30:06;19.60;99.90
16064;DHT22;8136;53.172;8.256;2022-07-01T00:32:34;19.40;99.90
16064;DHT22;8136;53.172;8.256;2022-07-01T00:35:00;19.40;99.90
16064;DHT22;8136;53.172;8.256;2022-07-01T00:37:27;19.30;99.90
16064;DHT22;8136;53.172;8.256;2022-07-01T00:39:54;19.20;99.90
16064;DHT22;8136;53.172;8.256;2022-07-01T00:42:21;19.10;99.90
16064;DHT22;8136;53.172;8.256;2022-07-01T00:44:49;19.10;99.90
16064;DHT22;8136;53.172;8.256;2022-07-01T00:47:16;19.00;99.90
16064;DHT22;8136;53.172;8.256;2022-07-01T00:49:43;18.90;99.90
16064;DHT22;8136;53.172;8.256;2022-07-01T00:52:10;18.90;99.90
16064;DHT22;8136;53.172;8.256;2022-07-01T00:54:37;18.90;99.90
16064;DHT22;8136;53.172;8.256;2022-07-01T00:57:08;18.80;99.90
16064;DHT22;8136;53.172;8.256;2022-07-01T00:59:36;18.70;99.90
16064;DHT22;8136;53.172;8.256;2022-07-01T01:02:05;18.70;99.90
16064;DHT22;8136;53.172;8.256;2022-07-01T01:04:32;18.60;99.90
16064;DHT22;8136;53.172;8.256;2022-07-01T01:07:00;18.50;99.90
16064;DHT22;8136;53.172;8.256;2022-07-01T01:09:28;18.40;99.90
16064;DHT22;8136;53.172;8.256;2022-07-01T01:11:55;18.40;99.90
16064;DHT22;8136;53.172;8.256;2022-07-01T01:14:23;18.40;99.90
16064;DHT22;8136;53.172;8.256;2022-07-01T01:16:50;18.40;99.90
16064;DHT22;8136;53.172;8.256;2022-07-01T01:19:18;18.30;99.90
16064;DHT22;8136;53.172;8.256;2022-07-01T01:21:47;18.20;99.90
16064;DHT22;8136;53.172;8.256;2022-07-01T01:24:13;18.10;99.90
16064;DHT22;8136;53.172;8.256;2022-07-01T01:26:40;18.10;99.90
16064;DHT22;8136;53.172;8.256;2022-07-01T01:29:07;18.00;99.90
16064;DHT22;8136;53.172;8.256;2022-07-01T01:31:34;17.90;99.90
16064;DHT22;8136;53.172;8.256;2022-07-01T01:34:01;17.80;99.90
16064;DHT22;8136;53.172;8.256;2022-07-01T01:36:28;17.70;99.90
16064;DHT22;8136;53.172;8.256;2022-07-01T01:38:56;17.70;99.90
16064;DHT22;8136;53.172;8.256;2022-07-01T01:41:25;17.50;99.90
16064;DHT22;8136;53.172;8.256;2022-07-01T01:43:52;17.50;99.90
16064;DHT22;8136;53.172;8.256;2022-07-01T01:46:19;17.60;99.90
16064;DHT22;8136;53.172;8.256;2022-07-01T01:48:46;17.60;99.90
16064;DHT22;8136;53.172;8.256;2022-07-01T01:51:12;17.60;99.90
16064;DHT22;8136;53.172;8.256;2022-07-01T01:53:39;17.60;99.90
16064;DHT22;8136;53.172;8.256;2022-07-01T01:56:07;17.60;99.90
16064;DHT22;8136;53.172;8.256;2022-07-01T01:58:34;17.60;99.90
16064;DHT22;8136;53.172;8.256;2022-07-01T02:01:01;17.50;99.90
16064;DHT22;8136;53.172;8.256;2022-07-01T02:03:28;17.40;99.90
16064;DHT22;8136;53.172;8.256;2022-07-01T02:05:55;17.30;99.90
16064;DHT22;8136;53.172;8.256;2022-07-01T02:08:22;17.30;99.90
16064;DHT22;8136;53.172;8.256;2022-07-01T02:10:49;17.40;99.90
16064;DHT22;8136;53.172;8.256;2022-07-01T02:13:17;17.40;99.90
16064;DHT22;8136;53.172;8.256;2022-07-01T02:15:44;17.40;99.90
16064;DHT22;8136;53.172;8.256;2022-07-01T02:18:11;17.40;99.90
16064;DHT22;8136;53.172;8.256;2022-07-01T02:20:37;17.40;99.90
16064;DHT22;8136;53.172;8.256;2022-07-01T02:23:04;17.40;99.90
16064;DHT22;8136;53.172;8.256;2022-07-01T02:25:31;17.50;99.90
16064;DHT22;8136;53.172;8.256;2022-07-01T02:27:58;17.50;99.90
16064;DHT22;8136;53.172;8.256;2022-07-01T02:30:27;17.40;99.90
16064;DHT22;8136;53.172;8.256;2022-07-01T02:32:54;17.40;99.90
16064;DHT22;8136;53.172;8.256;2022-07-01T02:35:21;17.30;99.90
16064;DHT22;8136;53.172;8.256;2022-07-01T02:37:48;17.30;99.90
16064;DHT22;8136;53.172;8.256;2022-07-01T02:40:14;17.30;99.90
16064;DHT22;8136;53.172;8.256;2022-07-01T02:42:41;17.20;99.90
16064;DHT22;8136;53.172;8.256;2022-07-01T02:45:08;17.20;99.90
16064;DHT22;8136;53.172;8.256;2022-07-01T02:47:37;17.10;99.90
16064;DHT22;8136;53.172;8.256;2022-07-01T02:50:07;17.10;99.90
16064;DHT22;8136;53.172;8.256;2022-07-01T02:52:34;17.10;99.90
16064;DHT22;8136;53.172;8.256;2022-07-01T02:55:02;17.10;99.90
16064;DHT22;8136;53.172;8.256;2022-07-01T02:57:29;17.10;99.90
16064;DHT22;8136;53.172;8.256;2022-07-01T02:59:56;17.00;99.90
16064;DHT22;8136;53.172;8.256;2022-07-01T03:02:23;17.10;99.90
16064;DHT22;8136;53.172;8.256;2022-07-01T03:04:53;17.10;99.90
16064;DHT22;8136;53.172;8.256;2022-07-01T03:07:20;17.00;99.90
16064;DHT22;8136;53.172;8.256;2022-07-01T03:09:47;17.10;99.90
16064;DHT22;8136;53.172;8.256;2022-07-01T03:12:14;17.10;99.90
16064;DHT22;8136;53.172;8.256;2022-07-01T03:14:55;17.10;99.90
16064;DHT22;8136;53.172;8.256;2022-07-01T03:17:22;17.00;99.90
16064;DHT22;8136;53.172;8.256;2022-07-01T03:19:50;17.00;99.90
16064;DHT22;8136;53.172;8.256;2022-07-01T03:22:19;17.10;99.90
16064;DHT22;8136;53.172;8.256;2022-07-01T03:24:47;17.00;99.90
16064;DHT22;8136;53.172;8.256;2022-07-01T03:27:14;16.90;99.90
16064;DHT22;8136;53.172;8.256;2022-07-01T03:29:41;16.90;99.90
16064;DHT22;8136;53.172;8.256;2022-07-01T03:32:08;16.90;99.90
16064;DHT22;8136;53.172;8.256;2022-07-01T03:34:35;16.90;99.90
16064;DHT22;8136;53.172;8.256;2022-07-01T03:37:04;16.90;99.90
16064;DHT22;8136;53.172;8.256;2022-07-01T03:39:31;16.90;99.90
16064;DHT22;8136;53.172;8.256;2022-07-01T03:41:57;16.80;99.90
16064;DHT22;8136;53.172;8.256;2022-07-01T03:44:24;16.80;99.90
16064;DHT22;8136;53.172;8.256;2022-07-01T03:46:51;16.80;99.90
16064;DHT22;8136;53.172;8.256;2022-07-01T03:49:18;16.90;99.90
16064;DHT22;8136;53.172;8.256;2022-07-01T03:51:44;16.90;99.90
16064;DHT22;8136;53.172;8.256;2022-07-01T03:54:12;16.80;99.90
16064;DHT22;8136;53.172;8.256;2022-07-01T03:56:59;16.80;99.90
16064;DHT22;8136;53.172;8.256;2022-07-01T03:59:26;16.70;99.90
16064;DHT22;8136;53.172;8.256;2022-07-01T04:01:54;16.70;99.90
16064;DHT22;8136;53.172;8.256;2022-07-01T04:04:21;16.70;99.90
16064;DHT22;8136;53.172;8.256;2022-07-01T04:06:49;16.70;99.90
16064;DHT22;8136;53.172;8.256;2022-07-01T04:09:18;16.70;99.90
16064;DHT22;8136;53.172;8.256;2022-07-01T04:11:45;16.70;99.90
16064;DHT22;8136;53.172;8.256;2022-07-01T04:14:13;16.70;99.90
16064;DHT22;8136;53.172;8.256;2022-07-01T04:16:40;16.70;99.90
16064;DHT22;8136;53.172;8.256;2022-07-01T04:19:08;16.70;99.90
16064;DHT22;8136;53.172;8.256;2022-07-01T04:21:35;16.60;99.90
16064;DHT22;8136;53.172;8.256;2022-07-01T04:24:20;16.60;99.90
16064;DHT22;8136;53.172;8.256;2022-07-01T04:26:48;16.60;99.90
16064;DHT22;8136;53.172;8.256;2022-07-01T04:29:15;16.60;99.90
16064;DHT22;8136;53.172;8.256;2022-07-01T04:31:42;16.50;99.90
16064;DHT22;8136;53.172;8.256;2022-07-01T04:34:09;16.50;99.90
16064;DHT22;8136;53.172;8.256;2022-07-01T04:36:37;16.50;99.90
16064;DHT22;8136;53.172;8.256;2022-07-01T04:39:05;16.50;99.90
16064;DHT22;8136;53.172;8.256;2022-07-01T04:41:33;16.50;99.90
16064;DHT22;8136;53.172;8.256;2022-07-01T04:44:18;16.40;99.90
16064;DHT22;8136;53.172;8.256;2022-07-01T04:46:44;16.40;99.90
16064;DHT22;8136;53.172;8.256;2022-07-01T04:49:11;16.40;99.90
16064;DHT22;8136;53.172;8.256;2022-07-01T04:51:38;16.40;99.90
16064;DHT22;8136;53.172;8.256;2022-07-01T04:54:06;16.40;99.90
16064;DHT22;8136;53.172;8.256;2022-07-01T04:56:36;16.40;99.90
16064;DHT22;8136;53.172;8.256;2022-07-01T04:59:03;16.40;99.90
16064;DHT22;8136;53.172;8.256;2022-07-01T05:01:30;16.40;99.90
16064;DHT22;8136;53.172;8.256;2022-07-01T05:03:57;16.40;99.90
16064;DHT22;8136;53.172;8.256;2022-07-01T05:06:25;16.40;99.90
16064;DHT22;8136;53.172;8.256;2022-07-01T05:08:52;16.40;99.90
16064;DHT22;8136;53.172;8.256;2022-07-01T05:11:19;16.50;99.90
16064;DHT22;8136;53.172;8.256;2022-07-01T05:13:47;16.40;99.90
16064;DHT22;8136;53.172;8.256;2022-07-01T05:16:13;16.30;99.90
16064;DHT22;8136;53.172;8.256;2022-07-01T05:18:40;16.30;99.90
16064;DHT22;8136;53.172;8.256;2022-07-01T05:21:36;16.30;99.90
16064;DHT22;8136;53.172;8.256;2022-07-01T05:24:20;16.20;99.90
16064;DHT22;8136;53.172;8.256;2022-07-01T05:26:48;16.20;99.90
16064;DHT22;8136;53.172;8.256;2022-07-01T05:29:16;16.20;99.90
16064;DHT22;8136;53.172;8.256;2022-07-01T05:31:43;16.20;99.90
16064;DHT22;8136;53.172;8.256;2022-07-01T05:34:09;16.20;99.90
16064;DHT22;8136;53.172;8.256;2022-07-01T05:36:36;16.20;99.90
16064;DHT22;8136;53.172;8.256;2022-07-01T05:39:03;16.20;99.90
16064;DHT22;8136;53.172;8.256;2022-07-01T05:41:31;16.30;99.90
16064;DHT22;8136;53.172;8.256;2022-07-01T05:43:58;16.30;99.90
16064;DHT22;8136;53.172;8.256;2022-07-01T05:46:26;16.30;99.90
16064;DHT22;8136;53.172;8.256;2022-07-01T05:48:53;16.30;99.90
16064;DHT22;8136;53.172;8.256;2022-07-01T05:51:20;16.30;99.90
16064;DHT22;8136;53.172;8.256;2022-07-01T05:53:47;16.30;99.90
16064;DHT22;8136;53.172;8.256;2022-07-01T05:56:14;16.30;99.90
16064;DHT22;8136;53.172;8.256;2022-07-01T05:58:41;16.30;99.90
16064;DHT22;8136;53.172;8.256;2022-07-01T06:01:08;16.30;99.90
16064;DHT22;8136;53.172;8.256;2022-07-01T06:03:36;16.30;99.90
16064;DHT22;8136;53.172;8.256;2022-07-01T06:06:03;16.30;99.90
16064;DHT22;8136;53.172;8.256;2022-07-01T06:08:29;16.30;99.90
16064;DHT22;8136;53.172;8.256;2022-07-01T06:10:56;16.40;99.90
16064;DHT22;8136;53.172;8.256;2022-07-01T06:13:23;16.30;99.90
16064;DHT22;8136;53.172;8.256;2022-07-01T06:15:50;16.30;99.90
16064;DHT22;8136;53.172;8.256;2022-07-01T06:18:17;16.40;99.90
16064;DHT22;8136;53.172;8.256;2022-07-01T06:20:45;16.40;99.90
16064;DHT22;8136;53.172;8.256;2022-07-01T06:23:11;16.40;99.90
16064;DHT22;8136;53.172;8.256;2022-07-01T06:25:38;16.40;99.90
16064;DHT22;8136;53.172;8.256;2022-07-01T06:28:05;16.40;99.90
16064;DHT22;8136;53.172;8.256;2022-07-01T06:30:32;16.40;99.90
16064;DHT22;8136;53.172;8.256;2022-07-01T06:32:59;16.50;99.90
16064;DHT22;8136;53.172;8.256;2022-07-01T06:35:26;16.50;99.90
16064;DHT22;8136;53.172;8.256;2022-07-01T06:37:54;16.50;99.90
16064;DHT22;8136;53.172;8.256;2022-07-01T06:40:21;16.50;99.90
16064;DHT22;8136;53.172;8.256;2022-07-01T06:42:48;16.50;99.90
16064;DHT22;8136;53.172;8.256;2022-07-01T06:45:15;16.60;99.90
16064;DHT22;8136;53.172;8.256;2022-07-01T06:47:42;16.60;99.90
16064;DHT22;8136;53.172;8.256;2022-07-01T06:50:09;16.70;99.90
16064;DHT22;8136;53.172;8.256;2022-07-01T06:52:36;16.70;99.90
16064;DHT22;8136;53.172;8.256;2022-07-01T06:55:05;16.70;99.90
16064;DHT22;8136;53.172;8.256;2022-07-01T06:57:31;16.80;99.90
16064;DHT22;8136;53.172;8.256;2022-07-01T06:59:58;16.90;99.90
16064;DHT22;8136;53.172;8.256;2022-07-01T07:02:25;17.00;99.90
16064;DHT22;8136;53.172;8.256;2022-07-01T07:04:52;16.90;99.90
16064;DHT22;8136;53.172;8.256;2022-07-01T07:07:23;16.90;99.90
16064;DHT22;8136;53.172;8.256;2022-07-01T07:09:50;16.90;99.90
16064;DHT22;8136;53.172;8.256;2022-07-01T07:12:18;16.80;99.90
16064;DHT22;8136;53.172;8.256;2022-07-01T07:14:45;16.80;99.90
16064;DHT22;8136;53.172;8.256;2022-07-01T07:17:12;16.80;99.90
16064;DHT22;8136;53.172;8.256;2022-07-01T07:19:38;16.70;99.90
16064;DHT22;8136;53.172;8.256;2022-07-01T07:22:05;16.70;99.90
16064;DHT22;8136;53.172;8.256;2022-07-01T07:24:32;16.70;99.90
16064;DHT22;8136;53.172;8.256;2022-07-01T07:26:59;16.70;99.90
16064;DHT22;8136;53.172;8.256;2022-07-01T07:29:27;16.60;99.90
16064;DHT22;8136;53.172;8.256;2022-07-01T07:31:54;16.60;99.90
16064;DHT22;8136;53.172;8.256;2022-07-01T07:34:21;16.60;99.90
16064;DHT22;8136;53.172;8.256;2022-07-01T07:36:48;16.60;99.90
16064;DHT22;8136;53.172;8.256;2022-07-01T07:39:15;16.60;99.90
16064;DHT22;8136;53.172;8.256;2022-07-01T07:41:41;16.60;99.90
16064;DHT22;8136;53.172;8.256;2022-07-01T07:44:08;16.60;99.90
16064;DHT22;8136;53.172;8.256;2022-07-01T07:46:36;16.70;99.90
16064;DHT22;8136;53.172;8.256;2022-07-01T07:49:03;16.70;99.90
16064;DHT22;8136;53.172;8.256;2022-07-01T07:51:30;16.70;99.90
16064;DHT22;8136;53.172;8.256;2022-07-01T07:53:57;16.70;99.90
16064;DHT22;8136;53.172;8.256;2022-07-01T07:56:23;16.80;99.90
16064;DHT22;8136;53.172;8.256;2022-07-01T07:58:50;16.70;99.90
16064;DHT22;8136;53.172;8.256;2022-07-01T08:01:17;16.70;99.90
16064;DHT22;8136;53.172;8.256;2022-07-01T08:03:45;16.80;99.90
16064;DHT22;8136;53.172;8.256;2022-07-01T08:06:12;16.80;99.90
16064;DHT22;8136;53.172;8.256;2022-07-01T08:08:39;16.90;99.90
16064;DHT22;8136;53.172;8.256;2022-07-01T08:11:06;16.90;99.90
16064;DHT22;8136;53.172;8.256;2022-07-01T08:13:33;16.90;99.90
16064;DHT22;8136;53.172;8.256;2022-07-01T08:16:00;16.90;99.90
16064;DHT22;8136;53.172;8.256;2022-07-01T08:18:27;16.90;99.90
16064;DHT22;8136;53.172;8.256;2022-07-01T08:20:56;16.90;99.90
16064;DHT22;8136;53.172;8.256;2022-07-01T08:23:23;16.90;99.90
16064;DHT22;8136;53.172;8.256;2022-07-01T08:25:50;16.90;99.90
16064;DHT22;8136;53.172;8.256;2022-07-01T08:28:17;16.90;99.90
16064;DHT22;8136;53.172;8.256;2022-07-01T08:30:44;16.90;99.90
16064;DHT22;8136;53.172;8.256;2022-07-01T08:33:11;17.00;99.90
16064;DHT22;8136;53.172;8.256;2022-07-01T08:35:38;17.00;99.90
16064;DHT22;8136;53.172;8.256;2022-07-01T08:38:06;17.10;99.90
16064;DHT22;8136;53.172;8.256;2022-07-01T08:40:34;17.10;99.90
16064;DHT22;8136;53.172;8.256;2022-07-01T08:43:03;17.20;99.90
16064;DHT22;8136;53.172;8.256;2022-07-01T08:45:33;17.20;99.90
16064;DHT22;8136;53.172;8.256;2022-07-01T08:48:00;17.20;99.90
16064;DHT22;8136;53.172;8.256;2022-07-01T08:50:28;17.20;99.90
16064;DHT22;8136;53.172;8.256;2022-07-01T08:52:55;17.20;99.90
16064;DHT22;8136;53.172;8.256;2022-07-01T08:55:24;17.10;99.90
16064;DHT22;8136;53.172;8.256;2022-07-01T08:57:51;17.20;99.90
16064;DHT22;8136;53.172;8.256;2022-07-01T09:00:18;17.20;99.90
16064;DHT22;8136;53.172;8.256;2022-07-01T09:02:50;17.30;99.90
16064;DHT22;8136;53.172;8.256;2022-07-01T09:05:17;17.30;99.90
16064;DHT22;8136;53.172;8.256;2022-07-01T09:07:44;17.30;99.90
16064;DHT22;8136;53.172;8.256;2022-07-01T09:10:15;17.20;99.90
16064;DHT22;8136;53.172;8.256;2022-07-01T09:12:45;17.20;99.90
16064;DHT22;8136;53.172;8.256;2022-07-01T09:15:25;17.30;99.90
16064;DHT22;8136;53.172;8.256;2022-07-01T09:17:54;17.40;99.90
16064;DHT22;8136;53.172;8.256;2022-07-01T09:20:26;17.40;99.90
16064;DHT22;8136;53.172;8.256;2022-07-01T09:23:01;17.40;99.90
16064;DHT22;8136;53.172;8.256;2022-07-01T09:25:33;17.40;99.90
16064;DHT22;8136;53.172;8.256;2022-07-01T09:28:10;17.40;99.90
16064;DHT22;8136;53.172;8.256;2022-07-01T09:30:39;17.40;99.90
16064;DHT22;8136;53.172;8.256;2022-07-01T09:33:11;17.50;99.90
16064;DHT22;8136;53.172;8.256;2022-07-01T09:35:39;17.50;99.90
16064;DHT22;8136;53.172;8.256;2022-07-01T09:38:07;17.50;99.90
16064;DHT22;8136;53.172;8.256;2022-07-01T09:40:50;17.60;99.90
16064;DHT22;8136;53.172;8.256;2022-07-01T09:43:23;17.70;99.90
16064;DHT22;8136;53.172;8.256;2022-07-01T09:46:00;17.70;99.90
16064;DHT22;8136;53.172;8.256;2022-07-01T09:48:42;17.70;99.90
16064;DHT22;8136;53.172;8.256;2022-07-01T09:51:11;17.70;99.90
16064;DHT22;8136;53.172;8.256;2022-07-01T09:53:38;17.80;99.90
16064;DHT22;8136;53.172;8.256;2022-07-01T09:56:05;17.80;99.90
16064;DHT22;8136;53.172;8.256;2022-07-01T09:58:33;17.90;99.90
16064;DHT22;8136;53.172;8.256;2022-07-01T10:01:04;17.90;99.90
16064;DHT22;8136;53.172;8.256;2022-07-01T10:03:32;18.00;99.90
16064;DHT22;8136;53.172;8.256;2022-07-01T10:06:14;18.00;99.90
16064;DHT22;8136;53.172;8.256;2022-07-01T10:08:55;17.90;99.90
16064;DHT22;8136;53.172;8.256;2022-07-01T10:11:48;17.90;99.90
16064;DHT22;8136;53.172;8.256;2022-07-01T10:14:21;17.90;99.90
16064;DHT22;8136;53.172;8.256;2022-07-01T10:16:48;17.90;99.90
16064;DHT22;8136;53.172;8.256;2022-07-01T10:19:26;18.00;99.90
16064;DHT22;8136;53.172;8.256;2022-07-01T10:21:54;18.00;99.90
16064;DHT22;8136;53.172;8.256;2022-07-01T10:24:23;18.10;99.90
16064;DHT22;8136;53.172;8.256;2022-07-01T10:26:50;18.20;99.90
16064;DHT22;8136;53.172;8.256;2022-07-01T10:29:31;18.30;99.90
16064;DHT22;8136;53.172;8.256;2022-07-01T10:32:03;18.30;99.90
16064;DHT22;8136;53.172;8.256;2022-07-01T10:34:34;18.40;99.90
16064;DHT22;8136;53.172;8.256;2022-07-01T10:37:03;18.40;99.90
16064;DHT22;8136;53.172;8.256;2022-07-01T10:39:56;18.40;99.90
16064;DHT22;8136;53.172;8.256;2022-07-01T10:42:30;18.50;99.90
16064;DHT22;8136;53.172;8.256;2022-07-01T10:45:09;18.60;99.90
16064;DHT22;8136;53.172;8.256;2022-07-01T10:47:37;18.60;99.90
16064;DHT22;8136;53.172;8.256;2022-07-01T10:50:08;18.70;99.90
16064;DHT22;8136;53.172;8.256;2022-07-01T10:52:35;18.70;99.90
16064;DHT22;8136;53.172;8.256;2022-07-01T10:55:06;18.70;99.90
16064;DHT22;8136;53.172;8.256;2022-07-01T10:57:38;18.80;99.90
16064;DHT22;8136;53.172;8.256;2022-07-01T11:00:25;18.80;99.90
16064;DHT22;8136;53.172;8.256;2022-07-01T11:03:14;18.80;99.90
16064;DHT22;8136;53.172;8.256;2022-07-01T11:05:42;18.80;99.90
16064;DHT22;8136;53.172;8.256;2022-07-01T11:08:10;18.80;99.90
16064;DHT22;8136;53.172;8.256;2022-07-01T11:10:40;18.80;99.90
16064;DHT22;8136;53.172;8.256;2022-07-01T11:13:07;18.90;99.90
16064;DHT22;8136;53.172;8.256;2022-07-01T11:15:34;19.00;99.90
16064;DHT22;8136;53.172;8.256;2022-07-01T11:18:01;19.20;99.90
16064;DHT22;8136;53.172;8.256;2022-07-01T11:20:30;19.30;99.90
16064;DHT22;8136;53.172;8.256;2022-07-01T11:22:58;19.40;99.90
16064;DHT22;8136;53.172;8.256;2022-07-01T11:25:25;19.50;99.90
16064;DHT22;8136;53.172;8.256;2022-07-01T11:27:54;19.50;99.90
16064;DHT22;8136;53.172;8.256;2022-07-01T11:30:22;19.60;99.90
16064;DHT22;8136;53.172;8.256;2022-07-01T11:32:50;19.70;99.90
16064;DHT22;8136;53.172;8.256;2022-07-01T11:35:19;19.80;99.90
16064;DHT22;8136;53.172;8.256;2022-07-01T11:38:05;19.80;99.90
16064;DHT22;8136;53.172;8.256;2022-07-01T11:40:50;19.80;99.90
16064;DHT22;8136;53.172;8.256;2022-07-01T11:43:23;19.90;99.90
16064;DHT22;8136;53.172;8.256;2022-07-01T11:45:50;20.10;99.90
16064;DHT22;8136;53.172;8.256;2022-07-01T11:48:36;20.30;99.90
16064;DHT22;8136;53.172;8.256;2022-07-01T11:51:07;20.60;99.90
16064;DHT22;8136;53.172;8.256;2022-07-01T11:53:35;20.70;99.90
16064;DHT22;8136;53.172;8.256;2022-07-01T11:56:02;20.80;99.90
16064;DHT22;8136;53.172;8.256;2022-07-01T11:58:48;21.00;99.90
16064;DHT22;8136;53.172;8.256;2022-07-01T12:01:23;21.20;99.90
16064;DHT22;8136;53.172;8.256;2022-07-01T12:03:50;21.30;99.90
16064;DHT22;8136;53.172;8.256;2022-07-01T12:06:18;21.30;99.90
16064;DHT22;8136;53.172;8.256;2022-07-01T12:08:46;21.30;99.90
16064;DHT22;8136;53.172;8.256;2022-07-01T12:11:14;21.20;99.90
16064;DHT22;8136;53.172;8.256;2022-07-01T12:13:44;21.10;99.90
16064;DHT22;8136;53.172;8.256;2022-07-01T12:16:11;21.00;99.90
16064;DHT22;8136;53.172;8.256;2022-07-01T12:18:38;20.90;99.90
16064;DHT22;8136;53.172;8.256;2022-07-01T12:21:05;20.70;99.90
16064;DHT22;8136;53.172;8.256;2022-07-01T12:23:32;20.60;99.90
16064;DHT22;8136;53.172;8.256;2022-07-01T12:26:04;20.50;99.90
16064;DHT22;8136;53.172;8.256;2022-07-01T12:28:33;20.50;99.90
16064;DHT22;8136;53.172;8.256;2022-07-01T12:31:06;20.50;99.90
16064;DHT22;8136;53.172;8.256;2022-07-01T12:33:36;20.50;99.90
16064;DHT22;8136;53.172;8.256;2022-07-01T12:36:04;20.50;99.90
16064;DHT22;8136;53.172;8.256;2022-07-01T12:38:31;20.50;99.90
16064;DHT22;8136;53.172;8.256;2022-07-01T12:40:58;20.40;99.90
16064;DHT22;8136;53.172;8.256;2022-07-01T12:43:27;20.30;99.90
16064;DHT22;8136;53.172;8.256;2022-07-01T12:45:56;20.30;99.90
16064;DHT22;8136;53.172;8.256;2022-07-01T12:48:25;20.30;99.90
16064;DHT22;8136;53.172;8.256;2022-07-01T12:50:53;20.30;99.90
16064;DHT22;8136;53.172;8.256;2022-07-01T12:53:21;20.20;99.90
16064;DHT22;8136;53.172;8.256;2022-07-01T12:55:50;20.20;99.90
16064;DHT22;8136;53.172;8.256;2022-07-01T12:58:18;20.20;99.90
16064;DHT22;8136;53.172;8.256;2022-07-01T13:00:48;20.30;99.90
16064;DHT22;8136;53.172;8.256;2022-07-01T13:03:19;20.40;99.90
16064;DHT22;8136;53.172;8.256;2022-07-01T13:05:48;20.50;99.90
16064;DHT22;8136;53.172;8.256;2022-07-01T13:08:15;20.60;99.90
16064;DHT22;8136;53.172;8.256;2022-07-01T13:10:43;20.80;99.90
16064;DHT22;8136;53.172;8.256;2022-07-01T13:13:11;20.80;99.90
16064;DHT22;8136;53.172;8.256;2022-07-01T13:15:38;20.70;99.90
16064;DHT22;8136;53.172;8.256;2022-07-01T13:18:06;20.70;99.90
16064;DHT22;8136;53.172;8.256;2022-07-01T13:20:33;20.60;99.90
16064;DHT22;8136;53.172;8.256;2022-07-01T13:23:01;20.60;99.90
16064;DHT22;8136;53.172;8.256;2022-07-01T13:25:28;20.70;99.90
16064;DHT22;8136;53.172;8.256;2022-07-01T13:27:55;20.70;99.90
16064;DHT22;8136;53.172;8.256;2022-07-01T13:30:22;20.70;99.90
16064;DHT22;8136;53.172;8.256;2022-07-01T13:32:49;20.70;99.90
16064;DHT22;8136;53.172;8.256;2022-07-01T13:35:19;20.80;99.90
16064;DHT22;8136;53.172;8.256;2022-07-01T13:37:46;20.80;99.90
16064;DHT22;8136;53.172;8.256;2022-07-01T13:40:15;20.80;99.90
16064;DHT22;8136;53.172;8.256;2022-07-01T13:42:42;20.80;99.90
16064;DHT22;8136;53.172;8.256;2022-07-01T13:45:09;20.80;99.90
16064;DHT22;8136;53.172;8.256;2022-07-01T13:47:37;20.90;99.90
16064;DHT22;8136;53.172;8.256;2022-07-01T13:50:05;20.80;99.90
16064;DHT22;8136;53.172;8.256;2022-07-01T13:52:31;20.80;99.90
16064;DHT22;8136;53.172;8.256;2022-07-01T13:54:58;20.90;99.90
16064;DHT22;8136;53.172;8.256;2022-07-01T13:57:27;20.90;99.90
16064;DHT22;8136;53.172;8.256;2022-07-01T13:59:53;20.90;99.90
16064;DHT22;8136;53.172;8.256;2022-07-01T14:02:22;20.90;99.90
16064;DHT22;8136;53.172;8.256;2022-07-01T14:04:49;21.00;99.90
16064;DHT22;8136;53.172;8.256;2022-07-01T14:07:16;21.10;99.90
16064;DHT22;8136;53.172;8.256;2022-07-01T14:09:43;21.30;99.90
16064;DHT22;8136;53.172;8.256;2022-07-01T14:12:10;21.60;99.90
16064;DHT22;8136;53.172;8.256;2022-07-01T14:14:38;21.80;99.90
16064;DHT22;8136;53.172;8.256;2022-07-01T14:17:05;22.00;99.90
16064;DHT22;8136;53.172;8.256;2022-07-01T14:19:32;22.30;99.90
16064;DHT22;8136;53.172;8.256;2022-07-01T14:21:59;22.50;99.90
16064;DHT22;8136;53.172;8.256;2022-07-01T14:24:26;22.80;99.90
16064;DHT22;8136;53.172;8.256;2022-07-01T14:26:53;22.90;99.90
16064;DHT22;8136;53.172;8.256;2022-07-01T14:29:20;23.10;99.90
16064;DHT22;8136;53.172;8.256;2022-07-01T14:31:48;23.10;99.90
16064;DHT22;8136;53.172;8.256;2022-07-01T14:34:15;23.00;99.90
16064;DHT22;8136;53.172;8.256;2022-07-01T14:36:45;22.70;99.90
16064;DHT22;8136;53.172;8.256;2022-07-01T14:39:12;22.50;99.90
16064;DHT22;8136;53.172;8.256;2022-07-01T14:41:42;22.60;99.90
16064;DHT22;8136;53.172;8.256;2022-07-01T14:44:20;22.80;99.90
16064;DHT22;8136;53.172;8.256;2022-07-01T14:46:49;23.30;99.90
16064;DHT22;8136;53.172;8.256;2022-07-01T14:49:25;23.60;99.90
16064;DHT22;8136;53.172;8.256;2022-07-01T14:52:10;23.50;99.90
16064;DHT22;8136;53.172;8.256;2022-07-01T14:54:37;23.30;99.90
16064;DHT22;8136;53.172;8.256;2022-07-01T14:57:05;23.20;99.90
16064;DHT22;8136;53.172;8.256;2022-07-01T14:59:32;23.40;99.90
16064;DHT22;8136;53.172;8.256;2022-07-01T15:02:00;23.70;99.90
16064;DHT22;8136;53.172;8.256;2022-07-01T15:04:29;24.00;99.90
16064;DHT22;8136;53.172;8.256;2022-07-01T15:06:56;24.00;99.90
16064;DHT22;8136;53.172;8.256;2022-07-01T15:09:23;23.50;99.90
16064;DHT22;8136;53.172;8.256;2022-07-01T15:11:51;23.10;99.90
16064;DHT22;8136;53.172;8.256;2022-07-01T15:14:18;22.70;99.90
16064;DHT22;8136;53.172;8.256;2022-07-01T15:16:46;22.30;99.90
16064;DHT22;8136;53.172;8.256;2022-07-01T15:19:14;22.00;99.90
16064;DHT22;8136;53.172;8.256;2022-07-01T15:21:41;21.70;99.90
16064;DHT22;8136;53.172;8.256;2022-07-01T15:24:08;21.50;99.90
16064;DHT22;8136;53.172;8.256;2022-07-01T15:26:35;21.40;99.90
16064;DHT22;8136;53.172;8.256;2022-07-01T15:29:02;21.40;99.90
16064;DHT22;8136;53.172;8.256;2022-07-01T15:31:29;21.30;99.90
16064;DHT22;8136;53.172;8.256;2022-07-01T15:33:56;21.30;99.90
16064;DHT22;8136;53.172;8.256;2022-07-01T15:36:24;21.30;99.90
16064;DHT22;8136;53.172;8.256;2022-07-01T15:38:52;21.20;99.90
16064;DHT22;8136;53.172;8.256;2022-07-01T15:41:20;21.20;99.90
16064;DHT22;8136;53.172;8.256;2022-07-01T15:43:48;21.40;99.90
16064;DHT22;8136;53.172;8.256;2022-07-01T15:46:15;21.90;99.90
16064;DHT22;8136;53.172;8.256;2022-07-01T15:48:44;22.40;99.90
16064;DHT22;8136;53.172;8.256;2022-07-01T15:51:12;22.50;99.90
16064;DHT22;8136;53.172;8.256;2022-07-01T15:53:40;22.50;99.90